sensor_id;sensor_type;location;lat;lon;timestamp;P1;durP1;ratioP1;P2;durP2;ratioP2
11510;SDS011;5812;48.864;9.190;2022-10-31T00:02:07;6.37;;;6.37;;
11510;SDS011;5812;48.864;9.190;2022-10-31T00:04:33;6.80;;;6.80;;
11510;SDS011;5812;48.864;9.190;2022-10-31T00:06:58;7.27;;;7.27;;
11510;SDS011;5812;48.864;9.190;2022-10-31T00:09:24;7.10;;;7.10;;
11510;SDS011;5812;48.864;9.190;2022-10-31T00:11:49;7.47;;;7.47;;
11510;SDS011;5812;48.864;9.190;2022-10-31T00:14:15;7.17;;;7.17;;
11510;SDS011;5812;48.864;9.190;2022-10-31T00:16:40;7.47;;;7.47;;
11510;SDS011;5812;48.864;9.190;2022-10-31T00:19:06;6.50;;;6.50;;
11510;SDS011;5812;48.864;9.190;2022-10-31T00:21:32;7.13;;;7.13;;
11510;SDS011;5812;48.864;9.190;2022-10-31T00:23:59;6.70;;;6.70;;
11510;SDS011;5812;48.864;9.190;2022-10-31T00:26:29;6.87;;;6.87;;
11510;SDS011;5812;48.864;9.190;2022-10-31T00:28:56;7.27;;;7.27;;
11510;SDS011;5812;48.864;9.190;2022-10-31T00:31:22;6.60;;;6.60;;
11510;SDS011;5812;48.864;9.190;2022-10-31T00:33:48;6.70;;;6.70;;
11510;SDS011;5812;48.864;9.190;2022-10-31T00:36:15;7.00;;;7.00;;
11510;SDS011;5812;48.864;9.190;2022-10-31T00:38:42;7.23;;;7.23;;
11510;SDS011;5812;48.864;9.190;2022-10-31T00:41:09;6.27;;;6.27;;
11510;SDS011;5812;48.864;9.190;2022-10-31T00:43:35;6.33;;;6.33;;
11510;SDS011;5812;48.864;9.190;2022-10-31T00:46:01;6.90;;;6.90;;
11510;SDS011;5812;48.864;9.190;2022-10-31T00:48:27;6.57;;;6.57;;
11510;SDS011;5812;48.864;9.190;2022-10-31T00:50:53;6.30;;;6.30;;
11510;SDS011;5812;48.864;9.190;2022-10-31T00:53:18;6.37;;;6.37;;
11510;SDS011;5812;48.864;9.190;2022-10-31T00:55:44;6.47;;;6.47;;
11510;SDS011;5812;48.864;9.190;2022-10-31T00:58:09;6.97;;;6.97;;
11510;SDS011;5812;48.864;9.190;2022-10-31T01:00:35;5.97;;;5.97;;
11510;SDS011;5812;48.864;9.190;2022-10-31T01:03:00;6.37;;;6.37;;
11510;SDS011;5812;48.864;9.190;2022-10-31T01:05:26;6.70;;;6.70;;
11510;SDS011;5812;48.864;9.190;2022-10-31T01:07:52;6.43;;;6.43;;
11510;SDS011;5812;48.864;9.190;2022-10-31T01:10:17;5.90;;;5.90;;
11510;SDS011;5812;48.864;9.190;2022-10-31T01:12:44;6.63;;;6.63;;
11510;SDS011;5812;48.864;9.190;2022-10-31T01:15:11;6.33;;;6.33;;
11510;SDS011;5812;48.864;9.190;2022-10-31T01:17:38;6.70;;;6.70;;
11510;SDS011;5812;48.864;9.190;2022-10-31T01:20:04;6.20;;;6.20;;
11510;SDS011;5812;48.864;9.190;2022-10-31T01:22:38;6.67;;;6.67;;
11510;SDS011;5812;48.864;9.190;2022-10-31T01:25:04;6.77;;;6.77;;
11510;SDS011;5812;48.864;9.190;2022-10-31T01:27:31;6.53;;;6.53;;
11510;SDS011;5812;48.864;9.190;2022-10-31T01:29:56;6.80;;;6.80;;
11510;SDS011;5812;48.864;9.190;2022-10-31T01:32:22;5.73;;;5.73;;
11510;SDS011;5812;48.864;9.190;2022-10-31T01:34:48;6.23;;;6.23;;
11510;SDS011;5812;48.864;9.190;2022-10-31T01:37:14;6.43;;;6.43;;
11510;SDS011;5812;48.864;9.190;2022-10-31T01:39:39;6.30;;;6.30;;
11510;SDS011;5812;48.864;9.190;2022-10-31T01:42:05;5.83;;;5.83;;
11510;SDS011;5812;48.864;9.190;2022-10-31T01:49:34;5.87;;;5.87;;
11510;SDS011;5812;48.864;9.190;2022-10-31T01:52:10;6.53;;;6.53;;
11510;SDS011;5812;48.864;9.190;2022-10-31T01:54:48;6.90;;;6.90;;
11510;SDS011;5812;48.864;9.190;2022-10-31T01:57:39;6.90;;;6.90;;
11510;SDS011;5812;48.864;9.190;2022-10-31T02:00:07;6.83;;;6.83;;
11510;SDS011;5812;48.864;9.190;2022-10-31T02:02:34;6.40;;;6.40;;
11510;SDS011;5812;48.864;9.190;2022-10-31T02:05:07;6.53;;;6.53;;
11510;SDS011;5812;48.864;9.190;2022-10-31T02:07:40;7.10;;;7.10;;
11510;SDS011;5812;48.864;9.190;2022-10-31T02:10:07;6.77;;;6.77;;
11510;SDS011;5812;48.864;9.190;2022-10-31T02:12:33;6.67;;;6.67;;
11510;SDS011;5812;48.864;9.190;2022-10-31T02:15:01;6.93;;;6.93;;
11510;SDS011;5812;48.864;9.190;2022-10-31T02:17:28;6.60;;;6.60;;
11510;SDS011;5812;48.864;9.190;2022-10-31T02:22:29;6.77;;;6.77;;
11510;SDS011;5812;48.864;9.190;2022-10-31T02:28:30;7.37;;;7.37;;
11510;SDS011;5812;48.864;9.190;2022-10-31T02:34:30;6.10;;;6.10;;
11510;SDS011;5812;48.864;9.190;2022-10-31T02:37:03;6.57;;;6.57;;
11510;SDS011;5812;48.864;9.190;2022-10-31T02:42:39;6.80;;;6.80;;
11510;SDS011;5812;48.864;9.190;2022-10-31T02:45:15;6.50;;;6.50;;
11510;SDS011;5812;48.864;9.190;2022-10-31T02:48:06;6.70;;;6.70;;
11510;SDS011;5812;48.864;9.190;2022-10-31T02:50:37;6.53;;;6.53;;
11510;SDS011;5812;48.864;9.190;2022-10-31T02:53:06;6.30;;;6.30;;
11510;SDS011;5812;48.864;9.190;2022-10-31T02:58:05;6.23;;;6.23;;
11510;SDS011;5812;48.864;9.190;2022-10-31T03:00:41;6.37;;;6.37;;
11510;SDS011;5812;48.864;9.190;2022-10-31T03:03:12;6.50;;;6.50;;
11510;SDS011;5812;48.864;9.190;2022-10-31T03:08:22;6.10;;;6.10;;
11510;SDS011;5812;48.864;9.190;2022-10-31T03:10:59;6.17;;;6.17;;
11510;SDS011;5812;48.864;9.190;2022-10-31T03:13:34;6.30;;;6.30;;
11510;SDS011;5812;48.864;9.190;2022-10-31T03:16:23;6.03;;;6.03;;
11510;SDS011;5812;48.864;9.190;2022-10-31T03:18:57;6.47;;;6.47;;
11510;SDS011;5812;48.864;9.190;2022-10-31T03:24:18;6.00;;;6.00;;
11510;SDS011;5812;48.864;9.190;2022-10-31T03:26:48;5.83;;;5.83;;
11510;SDS011;5812;48.864;9.190;2022-10-31T03:29:18;5.93;;;5.93;;
11510;SDS011;5812;48.864;9.190;2022-10-31T03:34:54;5.67;;;5.67;;
11510;SDS011;5812;48.864;9.190;2022-10-31T03:37:22;6.70;;;6.70;;
11510;SDS011;5812;48.864;9.190;2022-10-31T03:39:50;6.23;;;6.23;;
11510;SDS011;5812;48.864;9.190;2022-10-31T03:42:20;6.10;;;6.10;;
11510;SDS011;5812;48.864;9.190;2022-10-31T03:44:53;6.07;;;6.07;;
11510;SDS011;5812;48.864;9.190;2022-10-31T03:47:22;5.70;;;5.70;;
11510;SDS011;5812;48.864;9.190;2022-10-31T03:49:48;5.90;;;5.90;;
11510;SDS011;5812;48.864;9.190;2022-10-31T03:54:59;6.23;;;6.23;;
11510;SDS011;5812;48.864;9.190;2022-10-31T03:57:33;6.90;;;6.90;;
11510;SDS011;5812;48.864;9.190;2022-10-31T04:00:19;7.27;;;7.27;;
11510;SDS011;5812;48.864;9.190;2022-10-31T04:02:47;6.47;;;6.47;;
11510;SDS011;5812;48.864;9.190;2022-10-31T04:05:45;5.67;;;5.67;;
11510;SDS011;5812;48.864;9.190;2022-10-31T04:08:13;6.23;;;6.23;;
11510;SDS011;5812;48.864;9.190;2022-10-31T04:10:41;6.13;;;6.13;;
11510;SDS011;5812;48.864;9.190;2022-10-31T04:13:12;6.50;;;6.50;;
11510;SDS011;5812;48.864;9.190;2022-10-31T04:15:42;5.90;;;5.90;;
11510;SDS011;5812;48.864;9.190;2022-10-31T04:18:09;6.00;;;6.00;;
11510;SDS011;5812;48.864;9.190;2022-10-31T04:20:38;6.33;;;6.33;;
11510;SDS011;5812;48.864;9.190;2022-10-31T04:23:11;6.13;;;6.13;;
11510;SDS011;5812;48.864;9.190;2022-10-31T04:25:43;5.80;;;5.80;;
11510;SDS011;5812;48.864;9.190;2022-10-31T04:28:08;6.23;;;6.23;;
11510;SDS011;5812;48.864;9.190;2022-10-31T04:30:34;6.90;;;6.90;;
11510;SDS011;5812;48.864;9.190;2022-10-31T04:32:59;6.27;;;6.27;;
11510;SDS011;5812;48.864;9.190;2022-10-31T04:35:25;6.47;;;6.47;;
11510;SDS011;5812;48.864;9.190;2022-10-31T04:37:51;6.40;;;6.40;;
11510;SDS011;5812;48.864;9.190;2022-10-31T04:40:16;6.33;;;6.33;;
11510;SDS011;5812;48.864;9.190;2022-10-31T04:42:42;5.83;;;5.83;;
11510;SDS011;5812;48.864;9.190;2022-10-31T04:45:07;6.27;;;6.27;;
11510;SDS011;5812;48.864;9.190;2022-10-31T04:47:33;6.87;;;6.87;;
11510;SDS011;5812;48.864;9.190;2022-10-31T04:49:59;6.17;;;6.17;;
11510;SDS011;5812;48.864;9.190;2022-10-31T04:52:25;6.40;;;6.40;;
11510;SDS011;5812;48.864;9.190;2022-10-31T04:54:51;5.97;;;5.97;;
11510;SDS011;5812;48.864;9.190;2022-10-31T04:57:16;6.20;;;6.20;;
11510;SDS011;5812;48.864;9.190;2022-10-31T04:59:42;5.87;;;5.87;;
11510;SDS011;5812;48.864;9.190;2022-10-31T05:02:07;5.83;;;5.83;;
11510;SDS011;5812;48.864;9.190;2022-10-31T05:04:33;6.43;;;6.43;;
11510;SDS011;5812;48.864;9.190;2022-10-31T05:06:58;6.07;;;6.07;;
11510;SDS011;5812;48.864;9.190;2022-10-31T05:09:24;6.37;;;6.37;;
11510;SDS011;5812;48.864;9.190;2022-10-31T05:11:49;6.00;;;6.00;;
11510;SDS011;5812;48.864;9.190;2022-10-31T05:14:15;6.30;;;6.30;;
11510;SDS011;5812;48.864;9.190;2022-10-31T05:16:40;5.47;;;5.47;;
11510;SDS011;5812;48.864;9.190;2022-10-31T05:19:06;6.10;;;6.10;;
11510;SDS011;5812;48.864;9.190;2022-10-31T05:21:31;6.10;;;6.10;;
11510;SDS011;5812;48.864;9.190;2022-10-31T05:23:57;6.27;;;6.27;;
11510;SDS011;5812;48.864;9.190;2022-10-31T05:26:23;6.10;;;6.10;;
11510;SDS011;5812;48.864;9.190;2022-10-31T05:28:48;6.07;;;6.07;;
11510;SDS011;5812;48.864;9.190;2022-10-31T05:31:14;6.30;;;6.30;;
11510;SDS011;5812;48.864;9.190;2022-10-31T05:33:39;6.10;;;6.10;;
11510;SDS011;5812;48.864;9.190;2022-10-31T05:36:05;6.03;;;6.03;;
11510;SDS011;5812;48.864;9.190;2022-10-31T05:38:31;6.20;;;6.20;;
11510;SDS011;5812;48.864;9.190;2022-10-31T05:40:56;6.23;;;6.23;;
11510;SDS011;5812;48.864;9.190;2022-10-31T05:43:26;4.87;;;4.87;;
11510;SDS011;5812;48.864;9.190;2022-10-31T05:45:55;6.20;;;6.20;;
11510;SDS011;5812;48.864;9.190;2022-10-31T05:48:21;6.10;;;6.10;;
11510;SDS011;5812;48.864;9.190;2022-10-31T05:50:48;5.90;;;5.90;;
11510;SDS011;5812;48.864;9.190;2022-10-31T05:53:14;6.37;;;6.37;;
11510;SDS011;5812;48.864;9.190;2022-10-31T05:55:40;6.67;;;6.67;;
11510;SDS011;5812;48.864;9.190;2022-10-31T05:58:06;6.13;;;6.13;;
11510;SDS011;5812;48.864;9.190;2022-10-31T06:00:32;5.90;;;5.90;;
11510;SDS011;5812;48.864;9.190;2022-10-31T06:03:00;6.03;;;6.03;;
11510;SDS011;5812;48.864;9.190;2022-10-31T06:05:28;5.60;;;5.60;;
11510;SDS011;5812;48.864;9.190;2022-10-31T06:07:54;6.67;;;6.67;;
11510;SDS011;5812;48.864;9.190;2022-10-31T06:10:19;5.93;;;5.93;;
11510;SDS011;5812;48.864;9.190;2022-10-31T06:12:46;6.47;;;6.47;;
11510;SDS011;5812;48.864;9.190;2022-10-31T06:15:12;6.03;;;6.03;;
11510;SDS011;5812;48.864;9.190;2022-10-31T06:17:37;5.97;;;5.97;;
11510;SDS011;5812;48.864;9.190;2022-10-31T06:20:03;5.60;;;5.60;;
11510;SDS011;5812;48.864;9.190;2022-10-31T06:22:29;6.23;;;6.23;;
11510;SDS011;5812;48.864;9.190;2022-10-31T06:24:55;6.13;;;6.13;;
11510;SDS011;5812;48.864;9.190;2022-10-31T06:27:21;6.60;;;6.60;;
11510;SDS011;5812;48.864;9.190;2022-10-31T06:29:46;6.20;;;6.20;;
11510;SDS011;5812;48.864;9.190;2022-10-31T06:32:12;6.30;;;6.30;;
11510;SDS011;5812;48.864;9.190;2022-10-31T06:34:38;5.80;;;5.80;;
11510;SDS011;5812;48.864;9.190;2022-10-31T06:37:06;5.80;;;5.80;;
11510;SDS011;5812;48.864;9.190;2022-10-31T06:39:32;6.40;;;6.40;;
11510;SDS011;5812;48.864;9.190;2022-10-31T06:41:58;6.83;;;6.83;;
11510;SDS011;5812;48.864;9.190;2022-10-31T06:44:24;6.37;;;6.37;;
11510;SDS011;5812;48.864;9.190;2022-10-31T06:46:49;6.07;;;6.07;;
11510;SDS011;5812;48.864;9.190;2022-10-31T06:49:15;6.27;;;6.27;;
11510;SDS011;5812;48.864;9.190;2022-10-31T06:51:40;6.13;;;6.13;;
11510;SDS011;5812;48.864;9.190;2022-10-31T06:54:06;6.27;;;6.27;;
11510;SDS011;5812;48.864;9.190;2022-10-31T06:56:32;6.57;;;6.57;;
11510;SDS011;5812;48.864;9.190;2022-10-31T06:58:57;6.30;;;6.30;;
11510;SDS011;5812;48.864;9.190;2022-10-31T07:01:23;5.93;;;5.93;;
11510;SDS011;5812;48.864;9.190;2022-10-31T07:03:48;6.10;;;6.10;;
11510;SDS011;5812;48.864;9.190;2022-10-31T07:06:14;6.20;;;6.20;;
11510;SDS011;5812;48.864;9.190;2022-10-31T07:08:39;7.10;;;7.10;;
11510;SDS011;5812;48.864;9.190;2022-10-31T07:11:05;7.00;;;7.00;;
11510;SDS011;5812;48.864;9.190;2022-10-31T07:13:31;6.47;;;6.47;;
11510;SDS011;5812;48.864;9.190;2022-10-31T07:16:00;7.00;;;7.00;;
11510;SDS011;5812;48.864;9.190;2022-10-31T07:18:28;6.60;;;6.60;;
11510;SDS011;5812;48.864;9.190;2022-10-31T07:20:53;7.10;;;7.10;;
11510;SDS011;5812;48.864;9.190;2022-10-31T07:23:19;6.50;;;6.50;;
11510;SDS011;5812;48.864;9.190;2022-10-31T07:25:45;6.67;;;6.67;;
11510;SDS011;5812;48.864;9.190;2022-10-31T07:28:10;7.57;;;7.57;;
11510;SDS011;5812;48.864;9.190;2022-10-31T07:30:36;6.90;;;6.90;;
11510;SDS011;5812;48.864;9.190;2022-10-31T07:33:03;7.50;;;7.50;;
11510;SDS011;5812;48.864;9.190;2022-10-31T07:35:29;7.10;;;7.10;;
11510;SDS011;5812;48.864;9.190;2022-10-31T07:37:55;7.10;;;7.10;;
11510;SDS011;5812;48.864;9.190;2022-10-31T07:40:21;7.67;;;7.67;;
11510;SDS011;5812;48.864;9.190;2022-10-31T07:42:48;6.70;;;6.70;;
11510;SDS011;5812;48.864;9.190;2022-10-31T07:45:19;7.43;;;7.43;;
11510;SDS011;5812;48.864;9.190;2022-10-31T07:50:16;7.40;;;7.40;;
11510;SDS011;5812;48.864;9.190;2022-10-31T07:52:43;6.47;;;6.47;;
11510;SDS011;5812;48.864;9.190;2022-10-31T07:55:09;7.17;;;7.17;;
11510;SDS011;5812;48.864;9.190;2022-10-31T07:57:35;7.40;;;7.40;;
11510;SDS011;5812;48.864;9.190;2022-10-31T08:00:03;7.60;;;7.60;;
11510;SDS011;5812;48.864;9.190;2022-10-31T08:02:33;7.83;;;7.83;;
11510;SDS011;5812;48.864;9.190;2022-10-31T08:04:59;7.63;;;7.63;;
11510;SDS011;5812;48.864;9.190;2022-10-31T08:07:26;7.63;;;7.63;;
11510;SDS011;5812;48.864;9.190;2022-10-31T08:09:52;7.77;;;7.77;;
11510;SDS011;5812;48.864;9.190;2022-10-31T08:12:18;8.57;;;8.57;;
11510;SDS011;5812;48.864;9.190;2022-10-31T08:14:43;7.10;;;7.10;;
11510;SDS011;5812;48.864;9.190;2022-10-31T08:17:09;7.83;;;7.83;;
11510;SDS011;5812;48.864;9.190;2022-10-31T08:19:35;7.50;;;7.50;;
11510;SDS011;5812;48.864;9.190;2022-10-31T08:22:01;7.97;;;7.97;;
11510;SDS011;5812;48.864;9.190;2022-10-31T08:24:26;7.60;;;7.60;;
11510;SDS011;5812;48.864;9.190;2022-10-31T08:26:52;6.80;;;6.80;;
11510;SDS011;5812;48.864;9.190;2022-10-31T08:29:17;7.77;;;7.77;;
11510;SDS011;5812;48.864;9.190;2022-10-31T08:31:43;8.03;;;8.03;;
11510;SDS011;5812;48.864;9.190;2022-10-31T08:34:09;6.73;;;6.73;;
11510;SDS011;5812;48.864;9.190;2022-10-31T08:36:34;7.53;;;7.53;;
11510;SDS011;5812;48.864;9.190;2022-10-31T08:39:00;6.63;;;6.63;;
11510;SDS011;5812;48.864;9.190;2022-10-31T08:41:26;7.27;;;7.27;;
11510;SDS011;5812;48.864;9.190;2022-10-31T08:43:52;6.77;;;6.77;;
11510;SDS011;5812;48.864;9.190;2022-10-31T08:46:17;7.33;;;7.33;;
11510;SDS011;5812;48.864;9.190;2022-10-31T08:48:43;6.90;;;6.90;;
11510;SDS011;5812;48.864;9.190;2022-10-31T08:51:09;6.60;;;6.60;;
11510;SDS011;5812;48.864;9.190;2022-10-31T08:53:35;6.60;;;6.60;;
11510;SDS011;5812;48.864;9.190;2022-10-31T08:56:01;6.67;;;6.67;;
11510;SDS011;5812;48.864;9.190;2022-10-31T08:58:27;6.60;;;6.60;;
11510;SDS011;5812;48.864;9.190;2022-10-31T09:00:53;6.47;;;6.47;;
11510;SDS011;5812;48.864;9.190;2022-10-31T09:03:25;6.20;;;6.20;;
11510;SDS011;5812;48.864;9.190;2022-10-31T09:05:54;6.27;;;6.27;;
11510;SDS011;5812;48.864;9.190;2022-10-31T09:08:22;6.37;;;6.37;;
11510;SDS011;5812;48.864;9.190;2022-10-31T09:10:48;5.37;;;5.37;;
11510;SDS011;5812;48.864;9.190;2022-10-31T09:13:14;5.23;;;5.23;;
11510;SDS011;5812;48.864;9.190;2022-10-31T09:15:42;5.73;;;5.70;;
11510;SDS011;5812;48.864;9.190;2022-10-31T09:18:10;5.37;;;5.37;;
11510;SDS011;5812;48.864;9.190;2022-10-31T09:20:36;5.17;;;5.17;;
11510;SDS011;5812;48.864;9.190;2022-10-31T09:23:05;5.37;;;5.37;;
11510;SDS011;5812;48.864;9.190;2022-10-31T09:25:34;4.33;;;4.33;;
11510;SDS011;5812;48.864;9.190;2022-10-31T09:28:01;4.97;;;4.97;;
11510;SDS011;5812;48.864;9.190;2022-10-31T09:30:28;4.60;;;4.60;;
11510;SDS011;5812;48.864;9.190;2022-10-31T09:32:57;4.40;;;4.40;;
11510;SDS011;5812;48.864;9.190;2022-10-31T09:35:28;4.27;;;4.27;;
11510;SDS011;5812;48.864;9.190;2022-10-31T09:37:57;4.97;;;4.97;;
11510;SDS011;5812;48.864;9.190;2022-10-31T09:40:30;4.37;;;4.37;;
11510;SDS011;5812;48.864;9.190;2022-10-31T09:45:50;4.53;;;4.53;;
11510;SDS011;5812;48.864;9.190;2022-10-31T09:49:22;4.70;;;4.70;;
11510;SDS011;5812;48.864;9.190;2022-10-31T09:51:55;4.40;;;4.40;;
11510;SDS011;5812;48.864;9.190;2022-10-31T09:56:55;4.53;;;4.53;;
11510;SDS011;5812;48.864;9.190;2022-10-31T09:59:34;4.33;;;4.33;;
11510;SDS011;5812;48.864;9.190;2022-10-31T10:02:11;4.87;;;4.87;;
11510;SDS011;5812;48.864;9.190;2022-10-31T10:05:02;4.57;;;4.57;;
11510;SDS011;5812;48.864;9.190;2022-10-31T10:10:49;4.83;;;4.83;;
11510;SDS011;5812;48.864;9.190;2022-10-31T10:13:36;4.83;;;4.83;;
11510;SDS011;5812;48.864;9.190;2022-10-31T10:16:09;4.80;;;4.80;;
11510;SDS011;5812;48.864;9.190;2022-10-31T10:24:41;4.57;;;4.57;;
11510;SDS011;5812;48.864;9.190;2022-10-31T10:27:30;4.90;;;4.90;;
11510;SDS011;5812;48.864;9.190;2022-10-31T10:30:52;4.70;;;4.70;;
11510;SDS011;5812;48.864;9.190;2022-10-31T10:33:35;4.25;;;4.25;;
11510;SDS011;5812;48.864;9.190;2022-10-31T10:36:06;3.72;;;3.72;;
11510;SDS011;5812;48.864;9.190;2022-10-31T10:38:53;3.92;;;3.92;;
11510;SDS011;5812;48.864;9.190;2022-10-31T10:41:24;4.25;;;4.25;;
11510;SDS011;5812;48.864;9.190;2022-10-31T10:43:54;4.65;;;4.65;;
11510;SDS011;5812;48.864;9.190;2022-10-31T10:54:55;3.75;;;3.75;;
11510;SDS011;5812;48.864;9.190;2022-10-31T11:02:44;3.85;;;3.85;;
11510;SDS011;5812;48.864;9.190;2022-10-31T11:05:30;4.50;;;4.50;;
11510;SDS011;5812;48.864;9.190;2022-10-31T11:08:01;4.53;;;4.53;;
11510;SDS011;5812;48.864;9.190;2022-10-31T11:10:27;4.70;;;4.70;;
11510;SDS011;5812;48.864;9.190;2022-10-31T11:12:58;4.43;;;4.43;;
11510;SDS011;5812;48.864;9.190;2022-10-31T11:18:32;4.30;;;4.30;;
11510;SDS011;5812;48.864;9.190;2022-10-31T11:21:02;4.57;;;4.57;;
11510;SDS011;5812;48.864;9.190;2022-10-31T11:23:29;4.63;;;4.63;;
11510;SDS011;5812;48.864;9.190;2022-10-31T11:25:56;4.43;;;4.43;;
11510;SDS011;5812;48.864;9.190;2022-10-31T11:28:30;4.10;;;4.10;;
11510;SDS011;5812;48.864;9.190;2022-10-31T11:31:11;4.53;;;4.53;;
11510;SDS011;5812;48.864;9.190;2022-10-31T11:33:45;3.97;;;3.97;;
11510;SDS011;5812;48.864;9.190;2022-10-31T11:36:16;4.30;;;4.30;;
11510;SDS011;5812;48.864;9.190;2022-10-31T11:38:44;4.63;;;4.63;;
11510;SDS011;5812;48.864;9.190;2022-10-31T11:41:11;4.60;;;4.60;;
11510;SDS011;5812;48.864;9.190;2022-10-31T11:43:45;4.43;;;4.43;;
11510;SDS011;5812;48.864;9.190;2022-10-31T11:46:19;4.15;;;4.15;;
11510;SDS011;5812;48.864;9.190;2022-10-31T11:48:52;4.50;;;4.50;;
11510;SDS011;5812;48.864;9.190;2022-10-31T11:51:20;4.53;;;4.53;;
11510;SDS011;5812;48.864;9.190;2022-10-31T11:53:51;3.97;;;3.97;;
11510;SDS011;5812;48.864;9.190;2022-10-31T11:56:18;4.25;;;4.25;;
11510;SDS011;5812;48.864;9.190;2022-10-31T11:58:54;3.97;;;3.97;;
11510;SDS011;5812;48.864;9.190;2022-10-31T12:01:30;4.97;;;4.97;;
11510;SDS011;5812;48.864;9.190;2022-10-31T12:04:09;4.43;;;4.43;;
11510;SDS011;5812;48.864;9.190;2022-10-31T12:06:40;4.97;;;4.97;;
11510;SDS011;5812;48.864;9.190;2022-10-31T12:11:52;4.10;;;4.10;;
11510;SDS011;5812;48.864;9.190;2022-10-31T12:17:23;4.22;;;4.22;;
11510;SDS011;5812;48.864;9.190;2022-10-31T12:25:41;4.32;;;4.32;;
11510;SDS011;5812;48.864;9.190;2022-10-31T12:37:04;4.15;;;4.15;;
11510;SDS011;5812;48.864;9.190;2022-10-31T12:58:41;3.10;;;3.10;;
11510;SDS011;5812;48.864;9.190;2022-10-31T13:03:58;3.88;;;3.88;;
11510;SDS011;5812;48.864;9.190;2022-10-31T13:06:36;4.20;;;4.20;;
11510;SDS011;5812;48.864;9.190;2022-10-31T13:09:18;3.42;;;3.42;;
11510;SDS011;5812;48.864;9.190;2022-10-31T13:11:55;3.50;;;3.50;;
11510;SDS011;5812;48.864;9.190;2022-10-31T13:16:51;3.63;;;3.63;;
11510;SDS011;5812;48.864;9.190;2022-10-31T13:19:33;3.78;;;3.78;;
11510;SDS011;5812;48.864;9.190;2022-10-31T13:22:22;3.63;;;3.63;;
11510;SDS011;5812;48.864;9.190;2022-10-31T13:27:28;4.88;;;4.88;;
11510;SDS011;5812;48.864;9.190;2022-10-31T13:30:03;5.60;;;5.60;;
11510;SDS011;5812;48.864;9.190;2022-10-31T13:35:43;7.75;;;7.75;;
11510;SDS011;5812;48.864;9.190;2022-10-31T13:43:59;7.43;;;7.43;;
11510;SDS011;5812;48.864;9.190;2022-10-31T13:46:46;9.30;;;9.30;;
11510;SDS011;5812;48.864;9.190;2022-10-31T13:54:35;4.70;;;4.70;;
11510;SDS011;5812;48.864;9.190;2022-10-31T13:57:18;3.78;;;3.78;;
11510;SDS011;5812;48.864;9.190;2022-10-31T13:59:52;3.92;;;3.92;;
11510;SDS011;5812;48.864;9.190;2022-10-31T14:02:28;4.70;;;4.70;;
11510;SDS011;5812;48.864;9.190;2022-10-31T14:05:03;4.10;;;4.10;;
11510;SDS011;5812;48.864;9.190;2022-10-31T14:07:41;3.25;;;3.25;;
11510;SDS011;5812;48.864;9.190;2022-10-31T14:10:22;4.03;;;4.03;;
11510;SDS011;5812;48.864;9.190;2022-10-31T14:13:03;3.50;;;3.50;;
11510;SDS011;5812;48.864;9.190;2022-10-31T14:15:32;4.10;;;4.10;;
11510;SDS011;5812;48.864;9.190;2022-10-31T14:17:59;3.20;;;3.20;;
11510;SDS011;5812;48.864;9.190;2022-10-31T14:20:37;4.60;;;4.60;;
11510;SDS011;5812;48.864;9.190;2022-10-31T14:28:49;4.10;;;4.10;;
11510;SDS011;5812;48.864;9.190;2022-10-31T14:31:35;3.42;;;3.42;;
11510;SDS011;5812;48.864;9.190;2022-10-31T14:36:41;4.30;;;4.30;;
11510;SDS011;5812;48.864;9.190;2022-10-31T14:39:52;3.90;;;3.90;;
11510;SDS011;5812;48.864;9.190;2022-10-31T14:45:05;3.50;;;3.50;;
11510;SDS011;5812;48.864;9.190;2022-10-31T14:47:46;3.70;;;3.70;;
11510;SDS011;5812;48.864;9.190;2022-10-31T14:53:19;3.53;;;3.53;;
11510;SDS011;5812;48.864;9.190;2022-10-31T14:55:59;3.50;;;3.50;;
11510;SDS011;5812;48.864;9.190;2022-10-31T14:58:31;4.60;;;4.60;;
11510;SDS011;5812;48.864;9.190;2022-10-31T15:01:15;4.53;;;4.53;;
11510;SDS011;5812;48.864;9.190;2022-10-31T15:03:46;4.13;;;4.13;;
11510;SDS011;5812;48.864;9.190;2022-10-31T15:06:13;3.88;;;3.88;;
11510;SDS011;5812;48.864;9.190;2022-10-31T15:08:44;4.13;;;4.13;;
11510;SDS011;5812;48.864;9.190;2022-10-31T15:13:45;4.00;;;4.00;;
11510;SDS011;5812;48.864;9.190;2022-10-31T15:16:13;4.40;;;4.40;;
11510;SDS011;5812;48.864;9.190;2022-10-31T15:18:48;4.18;;;4.18;;
11510;SDS011;5812;48.864;9.190;2022-10-31T15:21:20;4.72;;;4.72;;
11510;SDS011;5812;48.864;9.190;2022-10-31T15:23:49;4.38;;;4.38;;
11510;SDS011;5812;48.864;9.190;2022-10-31T15:26:19;4.82;;;4.82;;
11510;SDS011;5812;48.864;9.190;2022-10-31T15:28:56;4.38;;;4.38;;
11510;SDS011;5812;48.864;9.190;2022-10-31T15:31:49;4.70;;;4.70;;
11510;SDS011;5812;48.864;9.190;2022-10-31T15:34:16;5.43;;;5.43;;
11510;SDS011;5812;48.864;9.190;2022-10-31T15:36:51;4.67;;;4.67;;
11510;SDS011;5812;48.864;9.190;2022-10-31T15:39:16;4.70;;;4.70;;
11510;SDS011;5812;48.864;9.190;2022-10-31T15:47:01;4.47;;;4.47;;
11510;SDS011;5812;48.864;9.190;2022-10-31T15:51:57;5.13;;;5.13;;
11510;SDS011;5812;48.864;9.190;2022-10-31T15:54:30;5.37;;;5.37;;
11510;SDS011;5812;48.864;9.190;2022-10-31T15:56:56;5.50;;;5.50;;
11510;SDS011;5812;48.864;9.190;2022-10-31T15:59:23;5.77;;;5.77;;
11510;SDS011;5812;48.864;9.190;2022-10-31T16:02:01;5.80;;;5.80;;
11510;SDS011;5812;48.864;9.190;2022-10-31T16:04:34;6.00;;;6.00;;
11510;SDS011;5812;48.864;9.190;2022-10-31T16:07:00;6.00;;;6.00;;
11510;SDS011;5812;48.864;9.190;2022-10-31T16:09:27;6.13;;;6.13;;
11510;SDS011;5812;48.864;9.190;2022-10-31T16:11:54;8.20;;;8.20;;
11510;SDS011;5812;48.864;9.190;2022-10-31T16:14:23;6.43;;;6.43;;
11510;SDS011;5812;48.864;9.190;2022-10-31T16:16:56;6.20;;;6.20;;
11510;SDS011;5812;48.864;9.190;2022-10-31T16:19:24;6.83;;;6.83;;
11510;SDS011;5812;48.864;9.190;2022-10-31T16:21:54;7.47;;;7.47;;
11510;SDS011;5812;48.864;9.190;2022-10-31T16:24:30;8.30;;;8.23;;
11510;SDS011;5812;48.864;9.190;2022-10-31T16:27:04;7.80;;;7.80;;
11510;SDS011;5812;48.864;9.190;2022-10-31T16:29:45;7.90;;;7.90;;
11510;SDS011;5812;48.864;9.190;2022-10-31T16:37:45;7.07;;;7.07;;
11510;SDS011;5812;48.864;9.190;2022-10-31T16:40:11;7.00;;;7.00;;
11510;SDS011;5812;48.864;9.190;2022-10-31T16:42:38;7.40;;;7.40;;
11510;SDS011;5812;48.864;9.190;2022-10-31T16:45:05;8.27;;;8.27;;
11510;SDS011;5812;48.864;9.190;2022-10-31T16:47:31;8.20;;;8.20;;
11510;SDS011;5812;48.864;9.190;2022-10-31T16:49:57;10.07;;;9.97;;
11510;SDS011;5812;48.864;9.190;2022-10-31T16:52:26;8.27;;;8.27;;
11510;SDS011;5812;48.864;9.190;2022-10-31T16:54:52;7.97;;;7.97;;
11510;SDS011;5812;48.864;9.190;2022-10-31T16:57:19;8.63;;;8.53;;
11510;SDS011;5812;48.864;9.190;2022-10-31T16:59:51;8.73;;;8.73;;
11510;SDS011;5812;48.864;9.190;2022-10-31T17:02:18;9.10;;;9.10;;
11510;SDS011;5812;48.864;9.190;2022-10-31T17:04:44;10.30;;;10.30;;
11510;SDS011;5812;48.864;9.190;2022-10-31T17:07:10;10.50;;;10.50;;
11510;SDS011;5812;48.864;9.190;2022-10-31T17:09:36;10.20;;;10.20;;
11510;SDS011;5812;48.864;9.190;2022-10-31T17:12:01;10.97;;;10.87;;
11510;SDS011;5812;48.864;9.190;2022-10-31T17:14:28;11.70;;;11.70;;
11510;SDS011;5812;48.864;9.190;2022-10-31T17:16:54;11.53;;;11.53;;
11510;SDS011;5812;48.864;9.190;2022-10-31T17:19:19;10.00;;;10.00;;
11510;SDS011;5812;48.864;9.190;2022-10-31T17:21:45;10.93;;;10.93;;
11510;SDS011;5812;48.864;9.190;2022-10-31T17:24:11;11.40;;;11.40;;
11510;SDS011;5812;48.864;9.190;2022-10-31T17:26:38;10.67;;;10.67;;
11510;SDS011;5812;48.864;9.190;2022-10-31T17:29:04;11.93;;;11.87;;
11510;SDS011;5812;48.864;9.190;2022-10-31T17:31:30;12.03;;;11.93;;
11510;SDS011;5812;48.864;9.190;2022-10-31T17:33:57;10.87;;;10.87;;
11510;SDS011;5812;48.864;9.190;2022-10-31T17:36:24;12.63;;;12.53;;
11510;SDS011;5812;48.864;9.190;2022-10-31T17:38:50;12.07;;;12.07;;
11510;SDS011;5812;48.864;9.190;2022-10-31T17:41:15;13.07;;;13.03;;
11510;SDS011;5812;48.864;9.190;2022-10-31T17:43:41;11.80;;;11.80;;
11510;SDS011;5812;48.864;9.190;2022-10-31T17:46:06;12.87;;;12.77;;
11510;SDS011;5812;48.864;9.190;2022-10-31T17:48:33;12.57;;;12.57;;
11510;SDS011;5812;48.864;9.190;2022-10-31T17:51:03;13.80;;;13.70;;
11510;SDS011;5812;48.864;9.190;2022-10-31T17:53:30;14.03;;;13.93;;